Tovey, IL (62570)

11:37 AM CST on November 27, 2014 (GMT -0600)
RURAL KINCAID IL USA | Change Station
CLOSE
Current Station
Personal Weather Station
Location: PAWNEE, IL
Elevation: 610 ft
Nearby Weather Stations

Elev 610 ft 39.57 °N, 89.43 °W | Updated 2 minutes ago

Overcast
Overcast
28.6 °F
Feels Like 20 °F
N
9.0
Wind Variable Wind from WNW
Gusts 9.0 mph

Today
High -- | Low -- °F
--% Chance of Precip.
Yesterday
High -- | Low -- °F
Precip. -- in
6:55 AM 4:35 PM
Waxing Crescent, 31% visible
Pressure 30.44 in
Visibility 7.0 miles
Clouds Overcast 2400 ft
Windchill 20 °F
Dew Point 19 °F
Humidity 68%
Rainfall 0.00 in
Snow Depth Not available.
UV 1 out of 12
Pollen .10 out of 12
Air Quality Not available.
Flu Activity Not available.
METAR KTAZ 271715Z AUTO 29010KT 7SM -SN OVC024 M02/M06 A3044 RMK AO2

More Conditions Fewer Conditions

Pressure 30.44 in
Visibility 7.0 miles
Clouds Overcast 2400 ft
Windchill 20 °F
Dew Point 19 °F
Humidity 68%
Rainfall 0.00 in
Snow Depth Not available.
UV 1 out of 12
Pollen .10 out of 12
Air Quality Not available.
Flu Activity Not available.
METAR KTAZ 271715Z AUTO 29010KT 7SM -SN OVC024 M02/M06 A3044 RMK AO2

More Conditions Fewer Conditions

10-Day Weather Forecast

Almanac

Astronomy

Nov. 27, 2014 Rise Set
Actual Time
Civil Twilight
Nautical Twilight
Astronomical Twilight
Moon
Length of Visible Light
Length of Day
Tomorrow will be .
, % of the Moon is Illuminated

Today's Extremes

State Highs State Lows

Community

WunderPhotos

Upload Photos

1,774,054 photos uploaded!

WunderBlogs® & News

Nearby

Air Quality

  Air Quality AQ Index Pollutant
Not available.

Snow Depth

Station Depth Elevation

Earthquake Activity

City Distance Mag. Time & Date
Minimum magnitude displayed is 2.5.

Coastal Water Temperatures

Place Temperature

Nearby Weather Stations